Time;durP1;ratioP1;P1;durP2;ratioP2;P2;SDS_P1;SDS_P2;PMS_P1;PMS_P2;Temp;Humidity;BMP_temperature;BMP_pressure;BME280_temperature;BME280_humidity;BME280_pressure;Samples;Min_cycle;Max_cycle;Signal;HPM_P1;HPM_P2
2022/09/26 00:01:30;;;;;;;6.03;4.43;;;;;;;15.77;54.99;100844.28;5054546;28;20473;-64
2022/09/26 00:04:02;;;;;;;7.97;4.55;;;;;;;15.75;54.92;100849.84;5054778;28;20041;-63
2022/09/26 00:06:28;;;;;;;6.78;5.45;;;;;;;15.72;55.09;100842.00;5054291;28;20041;-64
2022/09/26 00:08:55;;;;;;;5.85;4.32;;;;;;;15.68;55.20;100837.88;5054674;28;20044;-65
2022/09/26 00:11:26;;;;;;;8.05;4.82;;;;;;;15.66;55.02;100829.03;5054927;28;20045;-65
2022/09/26 00:13:59;;;;;;;6.75;4.63;;;;;;;15.63;55.23;100831.16;5054502;28;20067;-64
2022/09/26 00:16:26;;;;;;;6.05;4.55;;;;;;;15.63;55.09;100826.63;5053879;28;20083;-64
2022/09/26 00:18:55;;;;;;;6.93;5.25;;;;;;;15.63;55.25;100825.75;5054580;28;20059;-64
2022/09/26 00:21:23;;;;;;;8.82;5.53;;;;;;;15.64;55.21;100822.06;5054254;28;20496;-64
2022/09/26 00:23:52;;;;;;;6.95;4.82;;;;;;;15.65;55.13;100813.78;5054182;28;20048;-64
2022/09/26 00:26:20;;;;;;;7.22;5.00;;;;;;;15.69;55.42;100817.06;5053527;28;20117;-64
2022/09/26 00:28:47;;;;;;;7.60;5.35;;;;;;;15.69;55.69;100807.09;5052957;28;20045;-65
2022/09/26 00:31:19;;;;;;;6.68;5.22;;;;;;;15.71;55.71;100810.50;5054128;28;20396;-64
2022/09/26 00:33:47;;;;;;;6.47;4.60;;;;;;;15.73;55.44;100791.41;5052904;28;20443;-64
2022/09/26 00:36:14;;;;;;;7.22;4.82;;;;;;;15.75;55.63;100794.84;5053336;28;20119;-64
2022/09/26 00:38:41;;;;;;;5.85;4.60;;;;;;;15.74;55.38;100793.13;5052832;28;20120;-64
2022/09/26 00:41:07;;;;;;;6.28;4.65;;;;;;;15.72;55.65;100797.81;5053999;28;20491;-64
2022/09/26 00:46:23;;;;;;;5.20;4.55;;;;;;;15.71;55.78;100786.13;5052054;28;20067;-64
2022/09/26 00:49:13;;;;;;;6.30;4.50;;;;;;;15.70;55.41;100778.16;5053556;28;20091;-64
2022/09/26 00:51:45;;;;;;;5.55;4.20;;;;;;;15.73;55.46;100775.16;5050069;28;20084;-64
2022/09/26 00:54:18;;;;;;;7.30;4.82;;;;;;;15.73;55.45;100767.91;5054076;28;20036;-64
2022/09/26 00:56:49;;;;;;;5.63;4.30;;;;;;;15.74;55.84;100769.59;5053169;28;20087;-64
2022/09/26 00:59:28;;;;;;;6.97;4.22;;;;;;;15.73;55.90;100765.19;5052337;28;20106;-64
2022/09/26 01:01:57;;;;;;;4.90;4.20;;;;;;;15.72;55.65;100758.06;5052469;28;20457;-63
2022/09/26 01:04:31;;;;;;;4.78;3.95;;;;;;;15.70;55.53;100756.50;5052415;28;20054;-64
2022/09/26 01:07:01;;;;;;;9.25;4.30;;;;;;;15.71;55.91;100755.50;5052967;28;20056;-64
2022/09/26 01:09:29;;;;;;;5.57;3.65;;;;;;;15.72;55.94;100746.38;5053530;28;20557;-63
2022/09/26 01:12:00;;;;;;;5.30;4.30;;;;;;;15.73;55.94;100739.97;5052757;28;20069;-64
2022/09/26 01:14:29;;;;;;;4.63;3.97;;;;;;;15.73;56.10;100738.13;5053587;28;20411;-64
2022/09/26 01:16:55;;;;;;;4.93;3.55;;;;;;;15.75;55.89;100730.69;5053139;28;20044;-64
2022/09/26 01:19:42;;;;;;;6.72;3.88;;;;;;;15.76;56.35;100721.59;5051942;28;20044;-63
2022/09/26 01:22:27;;;;;;;5.35;3.70;;;;;;;15.78;56.11;100722.28;5052907;28;20049;-63
2022/09/26 01:25:28;;;;;;;5.40;4.30;;;;;;;15.76;55.90;100709.91;5053293;28;20095;-63
2022/09/26 01:28:17;;;;;;;5.35;3.65;;;;;;;15.74;55.92;100701.06;5025041;28;20041;-64
2022/09/26 01:30:51;;;;;;;4.75;3.60;;;;;;;15.73;55.77;100702.06;5031578;28;20359;-64
2022/09/26 01:33:38;;;;;;;5.60;3.75;;;;;;;15.70;56.21;100695.09;5031642;28;20496;-64
2022/09/26 01:36:29;;;;;;;5.85;4.00;;;;;;;15.68;55.98;100686.25;5042727;28;20049;-64
2022/09/26 01:39:29;;;;;;;6.85;4.30;;;;;;;15.70;56.22;100680.69;5051600;28;20446;-64
2022/09/26 01:42:12;;;;;;;6.65;3.88;;;;;;;15.69;56.30;100674.44;5051353;28;20049;-64
2022/09/26 01:45:00;;;;;;;8.68;4.50;;;;;;;15.69;55.75;100668.16;5051622;28;20487;-64
2022/09/26 01:47:34;;;;;;;6.25;4.35;;;;;;;15.71;56.02;100669.72;5050393;28;20481;-64
2022/09/26 01:50:09;;;;;;;6.53;4.63;;;;;;;15.71;55.72;100658.88;5051173;28;20091;-64
2022/09/26 01:52:57;;;;;;;5.80;4.03;;;;;;;15.70;56.12;100645.50;5052534;28;20553;-64
2022/09/26 01:55:30;;;;;;;6.18;4.47;;;;;;;15.68;56.05;100645.66;5051118;28;20044;-64
2022/09/26 01:58:05;;;;;;;6.10;4.65;;;;;;;15.67;56.16;100624.13;5051246;28;20041;-64
2022/09/26 02:00:35;;;;;;;6.75;4.30;;;;;;;15.66;55.90;100622.44;5051222;28;20136;-64
2022/09/26 02:03:05;;;;;;;7.32;4.25;;;;;;;15.66;55.75;100625.13;5050940;28;20048;-64
2022/09/26 02:05:37;;;;;;;6.90;4.32;;;;;;;15.67;56.06;100616.00;5050702;28;20069;-64
2022/09/26 02:08:11;;;;;;;6.65;4.15;;;;;;;15.68;56.28;100610.44;5051085;28;20739;-64
2022/09/26 02:10:45;;;;;;;6.43;4.00;;;;;;;15.67;56.30;100607.91;5051026;28;20040;-65
2022/09/26 02:13:16;;;;;;;6.10;3.90;;;;;;;15.67;55.96;100599.78;5050770;28;20661;-64
2022/09/26 02:15:48;;;;;;;5.85;3.80;;;;;;;15.68;56.00;100596.06;5050331;28;20141;-64
2022/09/26 02:18:33;;;;;;;7.63;3.67;;;;;;;15.65;56.07;100593.66;5050831;28;20045;-64
2022/09/26 02:21:31;;;;;;;5.65;3.92;;;;;;;15.63;56.19;100587.53;5050621;28;20037;-65
2022/09/26 02:24:03;;;;;;;5.18;3.92;;;;;;;15.64;56.35;100579.25;5042075;28;20040;-64
2022/09/26 02:26:29;;;;;;;6.60;3.47;;;;;;;15.65;56.13;100580.13;5049632;28;20102;-64
2022/09/26 02:28:59;;;;;;;7.35;4.10;;;;;;;15.67;56.08;100575.41;5050702;28;20130;-64
2022/09/26 02:31:30;;;;;;;5.93;3.75;;;;;;;15.66;56.18;100574.56;5050485;28;20044;-64
2022/09/26 02:34:03;;;;;;;7.18;3.72;;;;;;;15.67;56.51;100572.69;5034184;28;20041;-64
2022/09/26 02:36:32;;;;;;;4.68;3.47;;;;;;;15.66;56.11;100558.31;5050138;28;20052;-64
2022/09/26 02:39:00;;;;;;;5.53;3.33;;;;;;;15.66;56.21;100554.75;5050610;28;20041;-65
2022/09/26 02:42:07;;;;;;;3.63;3.05;;;;;;;15.65;56.39;100550.34;5050305;28;20446;-65
2022/09/26 02:44:44;;;;;;;6.72;3.78;;;;;;;15.65;56.13;100547.63;5051832;28;20041;-64
2022/09/26 02:47:24;;;;;;;4.40;2.90;;;;;;;15.63;56.22;100536.94;5049681;28;20044;-64
2022/09/26 02:50:28;;;;;;;4.05;3.17;;;;;;;15.63;56.46;100539.66;5050110;28;20838;-65
2022/09/26 02:52:55;;;;;;;4.82;2.85;;;;;;;15.63;56.42;100539.66;5050006;28;20140;-64
2022/09/26 02:56:02;;;;;;;6.05;3.17;;;;;;;15.60;56.45;100533.66;5049860;28;20036;-64
2022/09/26 02:58:47;;;;;;;5.85;3.20;;;;;;;15.60;56.21;100537.22;5050167;28;20037;-65
2022/09/26 03:01:24;;;;;;;6.93;3.17;;;;;;;15.60;56.35;100531.81;5033622;28;20561;-65
2022/09/26 03:04:14;;;;;;;5.50;2.97;;;;;;;15.60;56.43;100523.69;5050172;28;20049;-65
2022/09/26 03:06:48;;;;;;;8.65;3.55;;;;;;;15.62;56.22;100524.41;5033227;28;20079;-65
2022/09/26 03:09:18;;;;;;;5.10;3.13;;;;;;;15.63;56.36;100520.72;5049978;28;20045;-65
2022/09/26 03:11:46;;;;;;;4.20;2.83;;;;;;;15.65;56.27;100515.16;5051051;28;20044;-64
2022/09/26 03:14:19;;;;;;;6.40;3.17;;;;;;;15.66;56.46;100511.44;5050261;28;20041;-65
2022/09/26 03:16:49;;;;;;;5.68;2.58;;;;;;;15.65;56.27;100507.03;5048817;28;20107;-64
2022/09/26 03:19:26;;;;;;;4.60;2.47;;;;;;;15.63;56.26;100511.75;5051245;28;20083;-64
2022/09/26 03:21:53;;;;;;;4.13;2.47;;;;;;;15.62;56.32;100493.78;5049622;28;20533;-64
2022/09/26 03:24:23;;;;;;;5.60;2.70;;;;;;;15.63;56.09;100495.50;5049434;28;20049;-65
2022/09/26 03:26:50;;;;;;;8.07;2.70;;;;;;;15.62;56.48;100494.66;5049107;28;20053;-64
2022/09/26 03:29:18;;;;;;;5.28;2.88;;;;;;;15.64;56.40;100497.19;5051038;28;20124;-65
2022/09/26 03:31:48;;;;;;;5.75;2.30;;;;;;;15.63;56.06;100488.22;5050744;28;20421;-65
2022/09/26 03:34:20;;;;;;;6.00;3.08;;;;;;;15.63;55.93;100488.22;5049972;28;20488;-65
2022/09/26 03:36:48;;;;;;;6.40;2.40;;;;;;;15.63;56.21;100485.53;5049426;28;20090;-65
2022/09/26 03:39:16;;;;;;;5.18;2.20;;;;;;;15.64;55.96;100483.66;5049773;28;20065;-64
2022/09/26 03:41:49;;;;;;;4.43;2.50;;;;;;;15.65;56.21;100474.53;5049427;28;20049;-65
2022/09/26 03:44:20;;;;;;;4.80;2.50;;;;;;;15.65;55.82;100472.69;5049259;28;20045;-65
2022/09/26 03:47:02;;;;;;;9.13;2.00;;;;;;;15.66;55.77;100460.00;5051006;28;20372;-65
2022/09/26 03:49:30;;;;;;;4.50;2.40;;;;;;;15.66;56.04;100466.28;5049449;28;20045;-65
2022/09/26 03:51:56;;;;;;;4.95;2.75;;;;;;;15.70;55.81;100459.56;5049299;28;20060;-64
2022/09/26 03:54:23;;;;;;;4.28;2.20;;;;;;;15.73;55.90;100455.69;5049431;28;20067;-64
2022/09/26 03:56:50;;;;;;;5.57;1.92;;;;;;;15.74;55.97;100449.28;5049333;28;20442;-65
2022/09/26 03:59:17;;;;;;;5.28;2.00;;;;;;;15.73;55.93;100448.41;5049501;28;20043;-65
2022/09/26 04:01:45;;;;;;;4.05;2.30;;;;;;;15.73;55.72;100443.00;5049109;28;20132;-64
2022/09/26 04:04:16;;;;;;;5.05;1.98;;;;;;;15.73;55.83;100434.88;5050256;28;20155;-65
2022/09/26 04:06:43;;;;;;;4.95;2.13;;;;;;;15.75;55.83;100432.88;5049082;28;20041;-65
2022/09/26 04:09:11;;;;;;;3.55;2.00;;;;;;;15.72;55.88;100429.63;5049436;28;20045;-65
2022/09/26 04:11:45;;;;;;;4.50;2.25;;;;;;;15.71;55.83;100427.91;5049140;28;20071;-65
2022/09/26 04:14:13;;;;;;;5.45;2.30;;;;;;;15.70;55.85;100420.78;5048933;28;20037;-64
2022/09/26 04:16:42;;;;;;;5.82;2.75;;;;;;;15.70;55.92;100416.22;5049250;28;20128;-65
2022/09/26 04:19:22;;;;;;;2.72;1.85;;;;;;;15.68;55.95;100407.41;5049359;28;20049;-64
2022/09/26 04:21:50;;;;;;;4.88;2.25;;;;;;;15.67;55.87;100400.28;5050422;28;20033;-64
2022/09/26 04:24:21;;;;;;;5.43;2.45;;;;;;;15.68;55.61;100404.72;5048831;28;20065;-64
2022/09/26 04:26:47;;;;;;;3.70;1.60;;;;;;;15.69;56.09;100394.72;5049241;28;20529;-64
2022/09/26 04:29:15;;;;;;;5.63;2.38;;;;;;;15.68;55.80;100390.31;5049274;28;20045;-64
2022/09/26 04:31:52;;;;;;;3.25;2.17;;;;;;;15.68;56.05;100380.34;5048888;28;20094;-65
2022/09/26 04:34:25;;;;;;;5.65;2.00;;;;;;;15.68;55.89;100377.63;5049067;28;20045;-64
2022/09/26 04:36:53;;;;;;;3.97;1.85;;;;;;;15.68;55.96;100372.22;5051703;28;20049;-65
2022/09/26 04:39:20;;;;;;;2.80;1.67;;;;;;;15.70;56.20;100372.91;5052837;28;20037;-65
2022/09/26 04:41:47;;;;;;;6.80;2.45;;;;;;;15.69;56.14;100357.69;5052454;28;20068;-65
2022/09/26 04:44:14;;;;;;;5.03;1.92;;;;;;;15.69;55.60;100354.13;5050716;28;20137;-65
2022/09/26 04:46:40;;;;;;;6.25;1.88;;;;;;;15.66;55.99;100347.16;5052647;28;20469;-65
2022/09/26 04:49:08;;;;;;;4.50;2.20;;;;;;;15.63;56.08;100338.50;5052599;28;20083;-64
2022/09/26 04:51:36;;;;;;;5.22;2.33;;;;;;;15.61;55.98;100333.22;5052283;28;20143;-65
2022/09/26 04:54:07;;;;;;;4.95;2.15;;;;;;;15.61;56.02;100327.81;5052321;28;20048;-64
2022/09/26 04:56:39;;;;;;;2.92;1.70;;;;;;;15.62;56.09;100329.53;5052224;28;20160;-64
2022/09/26 04:59:07;;;;;;;5.15;2.28;;;;;;;15.58;55.85;100317.28;5052380;28;20037;-65
2022/09/26 05:01:46;;;;;;;4.13;2.10;;;;;;;15.56;55.96;100321.94;5052060;28;20503;-64
2022/09/26 05:04:24;;;;;;;4.55;2.25;;;;;;;15.54;56.07;100318.56;5032616;28;20037;-64
2022/09/26 05:06:56;;;;;;;5.80;2.33;;;;;;;15.54;55.57;100308.56;5032085;28;20050;-64
2022/09/26 05:09:27;;;;;;;7.22;2.30;;;;;;;15.56;56.00;100305.72;5032303;28;20415;-65
2022/09/26 05:12:12;;;;;;;4.63;2.30;;;;;;;15.57;55.96;100296.59;5051501;28;20063;-65
2022/09/26 05:14:47;;;;;;;6.00;2.45;;;;;;;15.58;55.66;100287.50;5052272;28;20069;-65
2022/09/26 05:17:14;;;;;;;7.15;2.83;;;;;;;15.59;55.54;100281.06;5051769;28;20037;-65
2022/09/26 05:19:43;;;;;;;3.53;2.20;;;;;;;15.56;55.83;100259.69;5051998;28;20495;-65
2022/09/26 05:22:29;;;;;;;3.78;2.30;;;;;;;15.56;56.03;100262.41;5051412;28;20453;-64
2022/09/26 05:27:42;;;;;;;5.47;2.85;;;;;;;15.55;55.96;100271.53;5052212;28;20474;-64
2022/09/26 05:30:11;;;;;;;5.65;2.80;;;;;;;15.57;56.08;100266.81;5051733;28;20503;-64
2022/09/26 05:32:38;;;;;;;3.50;2.10;;;;;;;15.58;55.80;100265.84;5066051;28;20038;-64
2022/09/26 05:35:07;;;;;;;5.10;2.67;;;;;;;15.59;55.88;100262.13;5065136;28;20049;-64
2022/09/26 05:37:38;;;;;;;4.78;2.40;;;;;;;15.59;55.98;100259.44;5033076;28;20060;-64
2022/09/26 05:42:52;;;;;;;6.28;2.55;;;;;;;15.60;56.23;100236.78;5052446;28;20131;-64
2022/09/26 05:45:20;;;;;;;5.13;2.90;;;;;;;15.61;56.25;100229.53;5051478;28;20067;-64
2022/09/26 05:47:48;;;;;;;6.95;3.50;;;;;;;15.62;55.73;100225.81;5052218;28;20041;-64
2022/09/26 05:50:15;;;;;;;7.00;3.00;;;;;;;15.61;55.96;100241.22;5051329;28;20049;-65
2022/09/26 05:52:43;;;;;;;5.35;3.40;;;;;;;15.59;55.72;100235.06;5050995;28;20064;-65
2022/09/26 05:55:16;;;;;;;6.00;3.30;;;;;;;15.56;55.98;100230.78;5051588;28;20071;-64
2022/09/26 05:58:01;;;;;;;13.02;4.25;;;;;;;15.53;55.91;100228.38;5052761;28;20048;-64
2022/09/26 06:00:48;;;;;;;5.57;3.08;;;;;;;15.51;56.14;100229.56;5051948;28;20120;-64
2022/09/26 06:03:15;;;;;;;4.65;3.30;;;;;;;15.50;56.17;100227.84;5051001;28;20573;-65
2022/09/26 06:05:52;;;;;;;7.45;3.20;;;;;;;15.49;56.23;100223.44;5051366;28;20067;-65
2022/09/26 06:08:27;;;;;;;5.35;2.97;;;;;;;15.47;56.25;100222.75;5051040;28;20052;-65
2022/09/26 06:11:26;;;;;;;5.80;3.53;;;;;;;15.50;56.08;100222.44;5032033;28;20054;-65
2022/09/26 06:13:54;;;;;;;7.20;3.45;;;;;;;15.50;56.57;100219.72;5032902;28;20160;-65
2022/09/26 06:16:21;;;;;;;6.43;3.47;;;;;;;15.49;56.60;100208.06;5030959;28;20095;-65
2022/09/26 06:18:50;;;;;;;10.77;3.78;;;;;;;15.50;56.25;100204.34;5045528;28;20095;-65
2022/09/26 06:21:19;;;;;;;7.85;3.40;;;;;;;15.51;56.33;100189.81;5050917;28;20102;-65
2022/09/26 06:23:52;;;;;;;7.32;3.42;;;;;;;15.51;56.65;100178.13;5050761;28;20045;-65
2022/09/26 06:26:22;;;;;;;8.88;3.30;;;;;;;15.51;56.85;100180.84;5050509;28;20049;-65
2022/09/26 06:28:58;;;;;;;6.25;3.40;;;;;;;15.50;56.58;100173.72;5049878;28;20048;-64
2022/09/26 06:31:28;;;;;;;7.15;3.10;;;;;;;15.46;56.51;100167.78;5050065;28;20049;-65
2022/09/26 06:34:30;;;;;;;6.25;3.47;;;;;;;15.43;56.50;100168.09;5051957;28;20073;-65
2022/09/26 06:37:23;;;;;;;5.15;2.90;;;;;;;15.42;56.71;100162.84;5050867;28;20056;-65
2022/09/26 06:39:49;;;;;;;9.05;3.30;;;;;;;15.40;56.66;100160.28;5050479;28;20052;-66
2022/09/26 06:42:21;;;;;;;7.05;3.42;;;;;;;15.40;56.69;100149.47;5034714;28;20512;-65
2022/09/26 06:44:56;;;;;;;5.25;3.40;;;;;;;15.43;56.97;100137.47;5050625;28;20041;-65
2022/09/26 06:47:23;;;;;;;7.60;3.13;;;;;;;15.44;57.04;100134.63;5051460;28;20087;-65
2022/09/26 06:50:25;;;;;;;5.82;3.40;;;;;;;15.47;57.16;100136.16;5047769;28;20671;-65
2022/09/26 06:52:55;;;;;;;6.68;3.03;;;;;;;15.49;57.15;100132.28;5029819;28;20457;-65
2022/09/26 06:55:29;;;;;;;7.20;3.00;;;;;;;15.52;57.12;100109.47;5030571;28;20549;-65
2022/09/26 06:57:57;;;;;;;7.07;3.30;;;;;;;15.53;57.03;100101.19;5031076;28;20038;-65
2022/09/26 07:00:28;;;;;;;5.20;3.30;;;;;;;15.53;57.31;100100.34;5031642;28;20052;-65
2022/09/26 07:03:18;;;;;;;6.22;3.08;;;;;;;15.53;57.31;100095.78;5049835;28;20045;-65
2022/09/26 07:05:55;;;;;;;6.82;3.10;;;;;;;15.51;57.37;100089.69;5048779;28;20048;-65
2022/09/26 07:08:24;;;;;;;4.32;2.92;;;;;;;15.52;57.50;100088.66;5049675;28;20067;-65
2022/09/26 07:11:12;;;;;;;6.72;2.60;;;;;;;15.56;57.41;100084.63;5040881;28;20056;-65
2022/09/26 07:14:01;;;;;;;6.22;3.50;;;;;;;15.59;57.07;100083.50;5029740;28;20048;-63
2022/09/26 07:16:29;;;;;;;6.80;2.65;;;;;;;15.59;57.29;100075.38;5036127;28;20562;-66
2022/09/26 07:19:16;;;;;;;5.75;3.03;;;;;;;15.61;56.99;100070.69;5051330;28;20079;-66
2022/09/26 07:21:54;;;;;;;4.10;2.13;;;;;;;15.63;57.42;100067.81;5050646;28;20503;-65
2022/09/26 07:24:30;;;;;;;6.90;2.65;;;;;;;15.63;57.24;100074.09;5051149;28;20056;-66
2022/09/26 07:26:57;;;;;;;5.97;2.80;;;;;;;15.62;56.94;100061.56;5049471;28;20131;-65
2022/09/26 07:29:24;;;;;;;4.50;2.30;;;;;;;15.64;57.21;100067.66;5049620;28;20052;-66
2022/09/26 07:31:51;;;;;;;5.00;2.55;;;;;;;15.66;57.10;100062.94;5049227;28;20040;-66
2022/09/26 07:34:39;;;;;;;7.72;2.70;;;;;;;15.71;57.35;100055.19;5049687;28;20056;-66
2022/09/26 07:37:06;;;;;;;4.60;2.30;;;;;;;15.74;57.20;100052.16;5049149;28;20053;-66
2022/09/26 07:39:33;;;;;;;5.95;2.40;;;;;;;15.78;57.14;100041.84;5049533;28;20041;-64
2022/09/26 07:42:03;;;;;;;6.20;2.28;;;;;;;15.81;57.21;100038.81;5049125;28;20041;-65
2022/09/26 07:44:30;;;;;;;5.47;2.33;;;;;;;15.84;56.98;100030.38;5051015;28;20052;-65
2022/09/26 07:50:11;;;;;;;3.40;2.25;;;;;;;15.85;56.92;100030.19;5048845;28;20041;-64
2022/09/26 07:53:07;;;;;;;5.95;1.98;;;;;;;15.85;57.09;100035.63;5038780;28;20049;-65
2022/09/26 07:56:12;;;;;;;3.72;2.05;;;;;;;15.88;57.04;100035.28;5050550;28;20052;-64
2022/09/26 07:59:04;;;;;;;4.13;2.10;;;;;;;15.90;57.03;100032.41;5049260;28;20053;-64
2022/09/26 08:01:53;;;;;;;5.20;2.30;;;;;;;15.92;56.96;100026.84;5042454;28;20053;-64
2022/09/26 08:04:34;;;;;;;4.43;2.35;;;;;;;15.96;57.07;100030.91;5049716;28;20531;-65
2022/09/26 08:07:01;;;;;;;5.70;2.47;;;;;;;15.97;57.33;100030.75;5049331;28;20136;-65
2022/09/26 08:09:29;;;;;;;5.75;2.55;;;;;;;16.00;57.49;100024.16;5049147;28;20040;-65
2022/09/26 08:12:26;;;;;;;3.60;1.98;;;;;;;16.04;57.04;100023.66;5036691;28;20546;-65
2022/09/26 08:15:09;;;;;;;3.33;2.50;;;;;;;16.04;56.86;100020.13;5033213;28;20096;-65
2022/09/26 08:17:40;;;;;;;5.47;2.53;;;;;;;16.04;57.11;100017.41;5033046;28;20103;-65
2022/09/26 08:20:07;;;;;;;4.80;2.20;;;;;;;16.00;56.97;100008.75;5044050;28;20048;-65
2022/09/26 08:22:34;;;;;;;6.32;2.40;;;;;;;16.02;57.12;100008.59;5052481;28;20049;-65
2022/09/26 08:25:03;;;;;;;4.07;1.95;;;;;;;16.01;57.31;100004.19;5053725;28;20045;-65
2022/09/26 08:27:42;;;;;;;3.33;2.10;;;;;;;16.01;57.17;99998.78;5052319;28;20407;-65
2022/09/26 08:30:10;;;;;;;5.10;2.53;;;;;;;16.02;57.48;100001.31;5052299;28;20045;-65
2022/09/26 08:32:37;;;;;;;6.32;2.30;;;;;;;16.05;57.54;99989.31;5052368;28;20052;-65
2022/09/26 08:35:13;;;;;;;3.70;2.30;;;;;;;16.07;57.63;99990.84;5036311;28;20158;-65
2022/09/26 08:38:07;;;;;;;3.60;2.30;;;;;;;16.10;57.29;99984.25;5036143;28;20128;-65
2022/09/26 08:40:49;;;;;;;4.45;2.15;;;;;;;16.10;57.44;99976.97;5032856;28;20049;-65
2022/09/26 08:44:08;;;;;;;3.83;2.10;;;;;;;16.12;57.46;99987.63;5034187;28;20060;-65
2022/09/26 08:47:01;;;;;;;5.82;2.30;;;;;;;16.16;57.27;99984.44;5049979;28;20102;-65
2022/09/26 08:50:06;;;;;;;6.93;2.42;;;;;;;16.20;57.40;99980.38;5054064;28;20071;-65
2022/09/26 08:52:44;;;;;;;5.55;2.05;;;;;;;16.25;57.34;99971.75;5051791;28;20047;-65
2022/09/26 08:55:22;;;;;;;4.07;2.08;;;;;;;16.27;57.67;99968.88;5052053;28;20523;-65
2022/09/26 08:57:57;;;;;;;5.03;2.15;;;;;;;16.29;57.47;99974.97;5032821;28;20037;-65
2022/09/26 09:00:26;;;;;;;4.80;2.20;;;;;;;16.30;57.33;99979.38;5015549;28;20069;-65
2022/09/26 09:03:09;;;;;;;3.25;2.05;;;;;;;16.31;57.42;99976.50;5046821;28;20306;-65
2022/09/26 09:05:41;;;;;;;4.75;2.05;;;;;;;16.31;57.13;99971.09;5052106;28;20044;-65
2022/09/26 09:08:21;;;;;;;7.40;2.40;;;;;;;16.33;57.74;99966.34;5051866;28;20036;-65
2022/09/26 09:11:18;;;;;;;5.88;2.15;;;;;;;16.38;57.41;99960.44;5052699;28;20546;-65
2022/09/26 09:13:55;;;;;;;4.97;2.08;;;;;;;16.41;57.47;99951.97;5052090;28;20037;-65
2022/09/26 09:17:12;;;;;;;5.20;2.63;;;;;;;16.46;57.75;99961.31;5042678;28;20068;-65
2022/09/26 09:20:24;;;;;;;3.50;2.10;;;;;;;16.53;57.59;99950.63;5051591;28;20048;-65
2022/09/26 09:23:15;;;;;;;5.72;2.60;;;;;;;16.59;57.40;99951.81;5051840;28;20033;-65
2022/09/26 09:26:10;;;;;;;6.20;2.20;;;;;;;16.65;57.92;99957.44;5051847;28;20049;-66
2022/09/26 09:29:06;;;;;;;6.72;2.75;;;;;;;16.70;57.45;99944.22;5051688;28;20044;-65
2022/09/26 09:31:42;;;;;;;7.78;2.40;;;;;;;16.75;57.53;99951.84;5050427;28;20048;-65
2022/09/26 09:34:45;;;;;;;6.10;2.53;;;;;;;16.77;57.37;99939.81;5050353;28;20056;-65
2022/09/26 09:37:45;;;;;;;7.70;2.83;;;;;;;16.76;57.27;99943.53;5050787;28;20537;-66
2022/09/26 09:40:43;;;;;;;6.25;2.90;;;;;;;16.73;57.52;99934.91;5046966;28;20045;-66
2022/09/26 09:43:25;;;;;;;4.82;2.83;;;;;;;16.70;57.85;99935.25;5051271;28;20045;-65
2022/09/26 09:45:57;;;;;;;6.32;2.53;;;;;;;16.67;57.72;99928.28;5052827;28;20054;-65
2022/09/26 09:48:26;;;;;;;3.85;2.65;;;;;;;16.64;57.76;99923.19;5050721;28;20044;-66
2022/09/26 09:51:12;;;;;;;5.60;2.70;;;;;;;16.63;57.59;99915.22;5051262;28;20044;-65
2022/09/26 09:54:17;;;;;;;4.07;2.50;;;;;;;16.62;58.25;99900.81;5051286;28;20353;-64
2022/09/26 09:57:11;;;;;;;7.60;3.22;;;;;;;16.62;58.13;99898.09;5051047;28;20037;-66
2022/09/26 10:00:01;;;;;;;5.00;3.63;;;;;;;16.62;58.56;99891.84;5051241;28;20091;-64
2022/09/26 10:03:03;;;;;;;7.75;2.97;;;;;;;16.63;58.35;99883.53;5051070;28;20479;-64
2022/09/26 10:05:40;;;;;;;7.57;3.25;;;;;;;16.69;58.80;99882.03;5051324;28;20041;-64
2022/09/26 10:08:17;;;;;;;4.38;2.60;;;;;;;16.73;58.74;99880.69;5051046;28;20404;-64
2022/09/26 10:11:13;;;;;;;6.47;3.20;;;;;;;16.76;58.56;99870.34;5051685;28;20130;-63
2022/09/26 10:14:11;;;;;;;6.20;2.72;;;;;;;16.82;58.80;99855.22;5052655;28;20491;-63
2022/09/26 10:17:08;;;;;;;6.10;2.70;;;;;;;16.85;58.91;99844.03;5032538;28;20087;-64
2022/09/26 10:19:43;;;;;;;5.47;2.08;;;;;;;16.88;59.13;99853.69;5071907;28;20037;-64
2022/09/26 10:22:23;;;;;;;7.07;2.40;;;;;;;16.86;59.10;99839.47;5050567;28;20043;-64
2022/09/26 10:25:20;;;;;;;6.80;3.03;;;;;;;16.83;59.26;99849.63;5031067;28;20038;-64
2022/09/26 10:27:54;;;;;;;3.38;2.40;;;;;;;16.87;58.85;99849.28;5060183;28;20132;-64
2022/09/26 10:30:29;;;;;;;4.05;2.38;;;;;;;16.88;59.25;99837.41;5050180;28;20044;-63
2022/09/26 10:33:03;;;;;;;4.63;2.63;;;;;;;16.88;58.94;99832.00;5049462;28;20037;-64
2022/09/26 10:35:51;;;;;;;;;;;;;;;16.87;59.03;99825.72;5050733;28;20045;-64
2022/09/26 10:38:27;;;;;;;5.90;3.30;;;;;;;16.93;58.89;99830.47;5050191;28;19928;-64
2022/09/26 10:41:02;;;;;;;6.00;2.88;;;;;;;16.93;59.12;99825.03;5049801;28;20037;-63
2022/09/26 10:43:37;;;;;;;5.68;3.08;;;;;;;16.90;58.92;99817.25;5049780;28;20045;-64
2022/09/26 10:46:15;;;;;;;6.40;2.58;;;;;;;16.89;58.86;99823.69;5049841;28;20094;-64
2022/09/26 10:49:02;;;;;;;8.68;2.83;;;;;;;16.91;59.41;99818.09;5051572;28;20406;-63
2022/09/26 10:51:49;;;;;;;6.50;2.72;;;;;;;16.90;59.38;99809.09;5051134;28;20049;-63
2022/09/26 10:54:22;;;;;;;4.78;2.50;;;;;;;16.93;59.04;99808.75;5050003;28;20102;-63
2022/09/26 10:56:58;;;;;;;6.30;3.20;;;;;;;16.95;59.09;99801.28;5051436;28;20037;-64
2022/09/26 10:59:30;;;;;;;5.22;2.70;;;;;;;16.96;59.09;99794.00;5033937;28;20075;-63
2022/09/26 11:01:58;;;;;;;6.20;2.90;;;;;;;16.94;59.38;99801.47;5049537;28;20047;-63
2022/09/26 11:07:43;;;;;;;8.93;3.03;;;;;;;16.92;59.13;99798.09;5029947;28;20045;-63
2022/09/26 11:10:33;;;;;;;6.60;3.20;;;;;;;16.91;59.58;99793.69;5029559;28;20083;-63
2022/09/26 11:13:18;;;;;;;;;;;;;;;16.88;59.54;99789.47;5029877;28;20045;-63
2022/09/26 11:15:59;;;;;;;8.50;3.38;;;;;;;16.91;59.54;99778.25;5044131;28;19928;-63
2022/09/26 11:18:33;;;;;;;5.97;2.72;;;;;;;16.90;59.47;99787.41;5049506;28;20079;-63
2022/09/26 11:21:14;;;;;;;6.38;3.05;;;;;;;16.91;59.74;99780.97;5049762;28;20502;-63
2022/09/26 11:24:19;;;;;;;4.35;2.90;;;;;;;16.92;59.94;99784.53;5049612;28;20102;-63
2022/09/26 11:27:04;;;;;;;5.55;2.78;;;;;;;16.95;59.69;99776.03;5049384;28;20219;-63
2022/09/26 11:30:08;;;;;;;4.78;2.70;;;;;;;16.93;60.13;99769.94;5049479;28;20068;-63
2022/09/26 11:32:40;;;;;;;10.25;3.67;;;;;;;16.96;59.85;99769.59;5032657;28;20045;-63
2022/09/26 11:35:51;;;;;;;3.83;3.20;;;;;;;16.97;59.82;99771.28;5049418;28;20049;-63
2022/09/26 11:38:48;;;;;;;;;;;;;;;16.94;59.92;99767.06;5049535;28;20529;-63
2022/09/26 11:41:35;;;;;;;6.10;2.60;;;;;;;16.95;59.48;99763.31;5048750;28;19921;-63
2022/09/26 11:44:18;;;;;;;5.50;2.95;;;;;;;16.94;59.76;99764.34;5049087;28;20037;-63
2022/09/26 11:47:35;;;;;;;6.80;2.53;;;;;;;16.90;59.95;99746.72;5054876;28;20116;-63
2022/09/26 11:50:15;;;;;;;3.80;2.63;;;;;;;16.89;59.98;99755.91;5052494;28;20048;-63
2022/09/26 11:53:31;;;;;;;4.75;2.72;;;;;;;16.84;60.00;99755.56;5052911;28;20422;-64
2022/09/26 11:56:49;;;;;;;3.75;2.58;;;;;;;16.82;60.15;99755.75;5040892;28;20036;-64
2022/09/26 11:59:40;;;;;;;4.72;2.40;;;;;;;16.80;60.31;99754.22;5054049;28;20064;-63
2022/09/26 12:02:25;;;;;;;5.22;2.65;;;;;;;16.78;60.39;99749.00;5053802;28;20041;-63
2022/09/26 12:05:12;;;;;;;6.37;2.70;;;;;;;16.77;60.38;99757.31;5053755;28;20048;-63
2022/09/26 12:08:10;;;;;;;6.20;2.75;;;;;;;16.75;60.64;99752.06;5054522;28;20487;-63
2022/09/26 12:11:16;;;;;;;3.58;2.47;;;;;;;16.74;60.58;99742.22;5053180;28;20400;-63
2022/09/26 12:14:26;;;;;;;5.90;3.00;;;;;;;16.74;60.49;99742.22;5053386;28;20045;-64
2022/09/26 12:17:13;;;;;;;8.70;3.17;;;;;;;16.75;60.55;99734.94;5054265;28;20287;-63
2022/09/26 12:19:54;;;;;;;4.88;2.90;;;;;;;16.73;60.61;99731.56;5054114;28;20040;-64
2022/09/26 12:22:37;;;;;;;4.97;2.85;;;;;;;16.72;60.52;99736.13;5053994;28;20482;-63
2022/09/26 12:25:17;;;;;;;6.65;2.88;;;;;;;16.71;60.92;99720.03;5053749;28;20049;-63
2022/09/26 12:27:48;;;;;;;3.10;2.33;;;;;;;16.70;60.64;99719.19;5054000;28;20560;-64
2022/09/26 12:30:32;;;;;;;4.45;2.78;;;;;;;16.68;60.68;99732.09;5054158;28;20049;-63
2022/09/26 12:36:39;;;;;;;4.57;2.72;;;;;;;16.66;61.19;99715.16;5053907;28;20045;-63
2022/09/26 12:39:08;;;;;;;5.90;2.38;;;;;;;16.65;61.18;99718.00;5053903;28;20573;-64